Time;durP1;ratioP1;P1;durP2;ratioP2;P2;SDS_P1;SDS_P2;PMS_P1;PMS_P2;Temp;Humidity;BMP_temperature;BMP_pressure;BME280_temperature;BME280_humidity;BME280_pressure;Samples;Min_cycle;Max_cycle;Signal;HPM_P1;HPM_P2
2022/12/06 00:00:24;;;;;;;;;;;19.50;41.50;;;;;;5149911;27;19998;-67
2022/12/06 00:02:50;;;;;;;;;;;19.50;42.30;;;;;;5149945;27;19923;-67
2022/12/06 00:05:15;;;;;;;;;;;19.50;41.50;;;;;;5149936;27;19919;-67
2022/12/06 00:07:41;;;;;;;;;;;19.50;41.40;;;;;;5150301;27;19919;-67
2022/12/06 00:10:07;;;;;;;;;;;19.50;41.40;;;;;;5150370;27;19931;-67
2022/12/06 00:12:32;;;;;;;;;;;19.50;41.40;;;;;;5149728;27;20434;-67
2022/12/06 00:14:58;;;;;;;;;;;19.50;41.30;;;;;;5168533;27;19922;-67
2022/12/06 00:17:23;;;;;;;;;;;19.60;41.30;;;;;;5150169;27;19958;-68
2022/12/06 00:19:49;;;;;;;;;;;19.60;41.20;;;;;;5168481;27;19938;-67
2022/12/06 00:22:14;;;;;;;;;;;19.70;41.20;;;;;;5148749;27;20443;-67
2022/12/06 00:24:40;;;;;;;;;;;19.70;41.00;;;;;;5168553;27;19955;-67
2022/12/06 00:27:06;;;;;;;;;;;19.70;40.90;;;;;;5149963;27;20369;-67
2022/12/06 00:29:31;;;;;;;;;;;19.80;40.90;;;;;;5149592;27;19925;-67
2022/12/06 00:31:57;;;;;;;;;;;19.80;40.80;;;;;;5149526;27;19925;-67
2022/12/06 00:34:22;;;;;;;;;;;19.80;40.70;;;;;;5159154;27;19969;-68
2022/12/06 00:36:48;;;;;;;;;;;19.80;40.70;;;;;;5118803;27;20528;-67
2022/12/06 00:39:15;;;;;;;;;;;19.90;40.70;;;;;;5133444;27;19930;-67
2022/12/06 00:41:41;;;;;;;;;;;19.90;40.60;;;;;;5135817;27;19930;-67
2022/12/06 00:44:07;;;;;;;;;;;19.90;40.60;;;;;;5135723;27;19919;-67
2022/12/06 00:46:33;;;;;;;;;;;19.90;40.50;;;;;;5154060;27;19934;-68
2022/12/06 00:48:59;;;;;;;;;;;19.90;40.50;;;;;;5154301;27;19919;-67
2022/12/06 00:51:26;;;;;;;;;;;19.90;40.40;;;;;;5135190;27;19957;-67
2022/12/06 00:53:51;;;;;;;;;;;19.90;40.40;;;;;;5135211;27;19919;-67
2022/12/06 00:56:17;;;;;;;;;;;19.90;40.30;;;;;;5153931;27;19943;-67
2022/12/06 00:58:43;;;;;;;;;;;19.90;40.30;;;;;;5135327;27;19919;-67
2022/12/06 01:01:12;;;;;;;;;;;20.00;41.20;;;;;;5135134;27;19919;-67
2022/12/06 01:03:38;;;;;;;;;;;20.00;40.40;;;;;;5135071;27;19935;-67
2022/12/06 01:06:05;;;;;;;;;;;20.00;40.30;;;;;;5154045;27;20267;-67
2022/12/06 01:08:30;;;;;;;;;;;19.20;39.90;;;;;;5134915;27;20026;-67
2022/12/06 01:10:56;;;;;;;;;;;20.00;40.30;;;;;;5153562;27;20014;-67
2022/12/06 01:13:22;;;;;;;;;;;20.00;40.30;;;;;;5153523;27;20378;-67
2022/12/06 01:15:47;;;;;;;;;;;19.90;40.30;;;;;;5153611;27;20293;-67
2022/12/06 01:18:13;;;;;;;;;;;19.90;40.30;;;;;;5134686;27;19926;-67
2022/12/06 01:20:38;;;;;;;;;;;19.90;40.30;;;;;;5135215;27;19922;-67
2022/12/06 01:23:04;;;;;;;;;;;19.90;40.30;;;;;;5134436;27;20390;-67
2022/12/06 01:25:31;;;;;;;;;;;19.90;40.30;;;;;;5153043;27;19963;-67
2022/12/06 01:27:57;;;;;;;;;;;19.90;40.30;;;;;;5153209;27;19952;-67
2022/12/06 01:30:23;;;;;;;;;;;19.90;40.20;;;;;;5135043;27;19919;-67
2022/12/06 01:32:48;;;;;;;;;;;19.90;40.20;;;;;;5134547;27;19919;-67
2022/12/06 01:35:14;;;;;;;;;;;19.90;40.20;;;;;;5153080;27;20294;-67
2022/12/06 01:37:40;;;;;;;;;;;19.90;40.20;;;;;;5153183;27;19919;-67
2022/12/06 01:40:05;;;;;;;;;;;19.90;40.30;;;;;;5134245;27;20386;-67
2022/12/06 01:42:31;;;;;;;;;;;19.90;40.20;;;;;;5134389;27;19930;-67
2022/12/06 01:44:58;;;;;;;;;;;19.90;40.30;;;;;;5152379;27;20397;-67
2022/12/06 01:47:27;;;;;;;;;;;19.90;40.20;;;;;;5133928;27;19926;-67
2022/12/06 01:49:56;;;;;;;;;;;19.90;40.20;;;;;;5153029;27;19954;-67
2022/12/06 01:52:24;;;;;;;;;;;19.90;40.20;;;;;;5134382;27;19925;-67
2022/12/06 01:54:49;;;;;;;;;;;19.90;40.20;;;;;;5134450;27;20328;-67
2022/12/06 01:57:15;;;;;;;;;;;19.90;40.20;;;;;;5134513;27;19919;-67
2022/12/06 01:59:41;;;;;;;;;;;19.90;40.20;;;;;;5152654;27;20347;-68
2022/12/06 02:02:07;;;;;;;;;;;19.90;40.20;;;;;;5133978;27;19998;-67
2022/12/06 02:04:33;;;;;;;;;;;19.90;40.10;;;;;;5134231;27;19941;-67
2022/12/06 02:06:59;;;;;;;;;;;19.90;40.10;;;;;;5134390;27;20287;-67
2022/12/06 02:09:26;;;;;;;;;;;20.00;40.20;;;;;;5133550;27;20366;-67
2022/12/06 02:11:51;;;;;;;;;;;20.00;40.10;;;;;;5150515;27;19927;-67
2022/12/06 02:14:20;;;;;;;;;;;20.00;40.00;;;;;;5117100;27;19986;-67
2022/12/06 02:20:01;;;;;;;;;;;20.00;40.10;;;;;;5087221;28;19916;-66
2022/12/06 02:27:56;;;;;;;;;;;20.00;40.00;;;;;;5107677;27;20387;-66
2022/12/06 02:33:14;;;;;;;;;;;20.00;40.00;;;;;;5124140;27;1852646;-66
2022/12/06 02:35:42;;;;;;;;;;;20.00;40.00;;;;;;5167065;27;19919;-66
2022/12/06 02:38:12;;;;;;;;;;;20.00;40.00;;;;;;5167311;27;20388;-66
2022/12/06 02:40:41;;;;;;;;;;;20.00;40.00;;;;;;5169625;27;19918;-66
2022/12/06 02:43:10;;;;;;;;;;;20.00;40.00;;;;;;5166787;27;19919;-66
2022/12/06 02:45:39;;;;;;;;;;;20.00;39.90;;;;;;5166854;27;19919;-66
2022/12/06 02:48:06;;;;;;;;;;;20.00;39.90;;;;;;5167160;27;19944;-66
2022/12/06 02:50:34;;;;;;;;;;;20.10;39.90;;;;;;5167198;27;19991;-66
2022/12/06 02:53:01;;;;;;;;;;;20.00;39.90;;;;;;5171556;27;19950;-67
2022/12/06 02:55:28;;;;;;;;;;;20.10;39.80;;;;;;5169203;27;19962;-67
2022/12/06 02:57:55;;;;;;;;;;;20.00;39.80;;;;;;5163325;27;20409;-67
2022/12/06 03:00:38;;;;;;;;;;;20.00;39.80;;;;;;5168897;27;20365;-67
2022/12/06 03:03:11;;;;;;;;;;;20.10;39.80;;;;;;5165810;27;19927;-68
2022/12/06 03:05:41;;;;;;;;;;;20.00;39.80;;;;;;5168533;27;19926;-67
2022/12/06 03:08:12;;;;;;;;;;;20.10;39.80;;;;;;5164523;27;20381;-67
2022/12/06 03:10:45;;;;;;;;;;;20.10;39.70;;;;;;5168815;27;19926;-67
2022/12/06 03:13:15;;;;;;;;;;;20.10;39.70;;;;;;5166065;27;19930;-67
2022/12/06 03:15:47;;;;;;;;;;;20.10;39.70;;;;;;5166181;27;19919;-67
2022/12/06 03:20:59;;;;;;;;;;;20.10;39.60;;;;;;5107376;27;19931;-66
2022/12/06 03:23:27;;;;;;;;;;;20.10;39.60;;;;;;5107300;28;19920;-66
2022/12/06 03:25:54;;;;;;;;;;;20.10;39.60;;;;;;5106214;28;19927;-66
2022/12/06 03:28:20;;;;;;;;;;;20.10;39.60;;;;;;5106693;28;20394;-66
2022/12/06 03:30:47;;;;;;;;;;;20.10;39.70;;;;;;5105952;28;19935;-66
2022/12/06 03:33:14;;;;;;;;;;;20.10;39.70;;;;;;5105863;28;19920;-67
2022/12/06 03:35:41;;;;;;;;;;;20.10;39.60;;;;;;5106209;28;19920;-67
2022/12/06 03:38:09;;;;;;;;;;;20.10;39.60;;;;;;5106145;28;19967;-66
2022/12/06 03:40:36;;;;;;;;;;;20.00;39.60;;;;;;5105768;28;19934;-66
2022/12/06 03:43:03;;;;;;;;;;;20.10;39.60;;;;;;5105442;28;19916;-66
2022/12/06 03:45:33;;;;;;;;;;;20.10;39.60;;;;;;5105785;28;19928;-66
2022/12/06 03:50:39;;;;;;;;;;;20.10;39.60;;;;;;5112093;27;1865470;-66
2022/12/06 03:53:04;;;;;;;;;;;20.00;39.50;;;;;;5129727;27;20389;-66
2022/12/06 03:55:30;;;;;;;;;;;20.10;39.50;;;;;;5148518;27;19919;-66
2022/12/06 03:57:55;;;;;;;;;;;20.10;39.50;;;;;;5130581;27;19915;-66
2022/12/06 04:00:24;;;;;;;;;;;20.10;39.50;;;;;;5130235;27;19916;-66
2022/12/06 04:02:49;;;;;;;;;;;20.10;39.50;;;;;;5130048;27;19935;-66
2022/12/06 04:05:15;;;;;;;;;;;20.10;39.50;;;;;;5130401;27;19939;-66
2022/12/06 04:07:41;;;;;;;;;;;20.10;39.50;;;;;;5129918;27;19919;-66
2022/12/06 04:10:06;;;;;;;;;;;20.10;39.50;;;;;;5129765;27;19965;-66
2022/12/06 04:13:05;;;;;;;;;;;20.10;39.50;;;;;;5129838;27;20277;-66
2022/12/06 04:15:19;;;;;;;;;;;20.10;39.50;;;;;;5129926;27;19915;-67
2022/12/06 04:18:17;;;;;;;;;;;20.10;39.50;;;;;;5129533;27;19926;-67
2022/12/06 04:23:02;;;;;;;;;;;20.10;39.50;;;;;;5129189;27;19919;-66
2022/12/06 04:23:17;;;;;;;;;;;20.10;39.50;;;;;;5148015;27;19916;-66
2022/12/06 04:25:42;;;;;;;;;;;20.10;39.50;;;;;;5129981;27;19927;-66
2022/12/06 04:39:10;;;;;;;;;;;20.10;39.50;;;;;;5129137;27;19915;-67
2022/12/06 04:44:21;;;;;;;;;;;20.10;39.40;;;;;;5146538;27;20565;-67
2022/12/06 04:46:46;;;;;;;;;;;20.10;39.50;;;;;;5147682;27;20154;-67
2022/12/06 04:49:12;;;;;;;;;;;20.10;39.40;;;;;;5128520;27;19954;-66
2022/12/06 04:51:37;;;;;;;;;;;20.00;39.40;;;;;;5128874;27;20010;-67
2022/12/06 04:54:04;;;;;;;;;;;20.10;39.40;;;;;;5147163;27;19927;-67
2022/12/06 04:56:29;;;;;;;;;;;20.10;39.40;;;;;;5147629;27;19917;-67
2022/12/06 04:58:56;;;;;;;;;;;20.10;39.40;;;;;;5128888;27;19922;-67
2022/12/06 05:01:21;;;;;;;;;;;20.10;39.40;;;;;;5136545;27;19968;-67
2022/12/06 05:03:47;;;;;;;;;;;20.10;39.40;;;;;;5133343;27;20298;-67
2022/12/06 05:06:12;;;;;;;;;;;20.10;39.40;;;;;;5115082;27;19919;-67
2022/12/06 05:08:38;;;;;;;;;;;20.10;39.30;;;;;;5115028;27;19931;-66
2022/12/06 05:11:03;;;;;;;;;;;20.10;39.30;;;;;;5114443;27;19967;-67
2022/12/06 05:13:29;;;;;;;;;;;20.10;39.20;;;;;;5133293;27;19972;-67
2022/12/06 05:15:57;;;;;;;;;;;20.20;39.20;;;;;;5133460;27;19921;-67
2022/12/06 05:18:23;;;;;;;;;;;20.20;39.10;;;;;;5114919;27;19934;-67
2022/12/06 05:20:49;;;;;;;;;;;20.30;39.10;;;;;;5133101;27;20278;-67
2022/12/06 05:23:15;;;;;;;;;;;20.30;38.90;;;;;;5114714;27;20002;-67
2022/12/06 05:25:40;;;;;;;;;;;20.40;38.80;;;;;;5133236;27;20010;-67
2022/12/06 05:28:07;;;;;;;;;;;20.40;38.70;;;;;;5115000;27;19915;-67
2022/12/06 05:30:33;;;;;;;;;;;20.40;38.60;;;;;;5114323;27;20335;-67
2022/12/06 05:32:59;;;;;;;;;;;20.50;38.60;;;;;;5114679;27;19962;-67
2022/12/06 05:35:24;;;;;;;;;;;20.50;38.50;;;;;;5132719;27;19919;-67
2022/12/06 05:37:50;;;;;;;;;;;20.60;38.50;;;;;;5114516;27;20608;-67
2022/12/06 05:40:15;;;;;;;;;;;20.60;38.40;;;;;;5115230;27;20010;-67
2022/12/06 05:42:41;;;;;;;;;;;20.60;38.30;;;;;;5132732;27;19962;-67
2022/12/06 05:45:07;;;;;;;;;;;20.60;38.30;;;;;;5132779;27;19920;-67
2022/12/06 05:47:33;;;;;;;;;;;20.50;38.30;;;;;;5132744;27;19994;-67
2022/12/06 05:49:58;;;;;;;;;;;20.60;38.40;;;;;;5113891;27;20016;-66
2022/12/06 05:52:24;;;;;;;;;;;20.50;38.40;;;;;;5132475;27;19976;-67
2022/12/06 05:54:49;;;;;;;;;;;20.50;38.40;;;;;;5132760;27;19928;-67
2022/12/06 05:57:15;;;;;;;;;;;20.50;38.40;;;;;;5116740;27;19926;-67
2022/12/06 05:59:40;;;;;;;;;;;20.50;38.40;;;;;;5113877;27;19928;-67
2022/12/06 06:02:06;;;;;;;;;;;20.40;38.40;;;;;;5132662;27;19967;-67
2022/12/06 06:04:31;;;;;;;;;;;20.40;38.40;;;;;;5132496;27;19920;-67
2022/12/06 06:06:57;;;;;;;;;;;20.40;38.40;;;;;;5132136;27;19920;-67
2022/12/06 06:09:23;;;;;;;;;;;20.40;38.40;;;;;;5113999;27;20076;-67
2022/12/06 06:11:48;;;;;;;;;;;20.50;38.40;;;;;;5131862;27;19942;-67
2022/12/06 06:14:14;;;;;;;;;;;20.40;38.30;;;;;;5131749;27;19927;-67
2022/12/06 06:16:39;;;;;;;;;;;20.40;38.30;;;;;;5132068;27;19989;-67
2022/12/06 06:19:05;;;;;;;;;;;20.40;38.30;;;;;;5132232;27;19966;-67
2022/12/06 06:21:30;;;;;;;;;;;20.50;38.40;;;;;;5132043;27;20382;-67
2022/12/06 06:23:57;;;;;;;;;;;20.50;38.30;;;;;;5131874;27;20397;-67
2022/12/06 06:26:22;;;;;;;;;;;20.40;38.20;;;;;;5131866;27;19919;-67
2022/12/06 06:28:48;;;;;;;;;;;20.40;38.20;;;;;;5113569;27;20018;-67
2022/12/06 06:31:14;;;;;;;;;;;20.40;38.20;;;;;;5113427;27;20004;-67
2022/12/06 06:33:40;;;;;;;;;;;20.40;38.20;;;;;;5131963;27;19927;-67
2022/12/06 06:36:06;;;;;;;;;;;20.40;38.30;;;;;;5113444;27;20024;-67
2022/12/06 06:38:31;;;;;;;;;;;20.40;38.20;;;;;;5131508;27;19988;-65
2022/12/06 06:41:00;;;;;;;;;;;20.40;38.20;;;;;;5126673;27;19999;-67
2022/12/06 06:43:25;;;;;;;;;;;20.60;38.40;;;;;;5130162;27;19919;-67
2022/12/06 06:45:53;;;;;;;;;;;21.00;38.90;;;;;;5107066;27;20346;-66
2022/12/06 06:48:18;;;;;;;;;;;21.30;38.90;;;;;;5111365;27;19920;-66
2022/12/06 06:50:44;;;;;;;;;;;21.90;38.40;;;;;;5111550;27;19930;-67
2022/12/06 06:53:09;;;;;;;;;;;22.20;37.70;;;;;;5112081;27;20010;-65
2022/12/06 06:55:35;;;;;;;;;;;22.60;37.10;;;;;;5104709;27;20268;-66
2022/12/06 06:58:02;;;;;;;;;;;22.90;36.50;;;;;;5111157;27;19923;-66
2022/12/06 07:00:27;;;;;;;;;;;23.20;36.00;;;;;;5111044;27;20010;-65
2022/12/06 07:02:53;;;;;;;;;;;23.40;35.70;;;;;;5111031;27;20018;-66
2022/12/06 07:05:18;;;;;;;;;;;23.60;35.40;;;;;;5111346;27;20630;-65
2022/12/06 07:07:45;;;;;;;;;;;23.70;35.10;;;;;;5110030;27;19919;-66
2022/12/06 07:10:11;;;;;;;;;;;23.80;35.00;;;;;;5121712;27;20294;-63
2022/12/06 07:12:36;;;;;;;;;;;23.70;34.90;;;;;;5109599;27;19927;-64
2022/12/06 07:15:02;;;;;;;;;;;23.80;34.80;;;;;;5111559;27;19927;-65
2022/12/06 07:17:28;;;;;;;;;;;23.90;34.80;;;;;;5111039;27;19941;-66
2022/12/06 07:19:54;;;;;;;;;;;24.00;34.70;;;;;;5123820;27;20501;-66
2022/12/06 07:22:20;;;;;;;;;;;24.10;34.50;;;;;;5123735;27;19919;-66
2022/12/06 07:24:45;;;;;;;;;;;24.10;34.50;;;;;;5119418;27;19919;-66
2022/12/06 07:27:11;;;;;;;;;;;24.20;34.30;;;;;;5123395;27;19927;-67
2022/12/06 07:29:37;;;;;;;;;;;24.30;34.00;;;;;;5114251;27;19924;-64
2022/12/06 07:32:03;;;;;;;;;;;24.40;33.80;;;;;;5117807;27;19931;-62
2022/12/06 07:34:28;;;;;;;;;;;24.50;33.60;;;;;;5100827;27;20532;-63
2022/12/06 07:36:54;;;;;;;;;;;24.60;33.50;;;;;;5097565;27;19923;-67
2022/12/06 07:39:19;;;;;;;;;;;24.50;33.70;;;;;;5118093;27;19933;-65
2022/12/06 07:45:03;;;;;;;;;;;24.50;33.30;;;;;;5101357;27;19928;-66
2022/12/06 07:47:16;;;;;;;;;;;24.40;33.60;;;;;;5102738;28;19931;-65
2022/12/06 07:49:41;;;;;;;;;;;24.30;33.60;;;;;;5106457;28;19997;-67
2022/12/06 07:52:07;;;;;;;;;;;24.30;33.80;;;;;;5105960;27;19926;-70
2022/12/06 07:54:32;;;;;;;;;;;24.50;33.90;;;;;;5102377;28;19936;-68
2022/12/06 07:56:58;;;;;;;;;;;24.80;33.80;;;;;;5100604;28;19926;-67
2022/12/06 07:59:24;;;;;;;;;;;25.10;33.40;;;;;;5091419;28;19959;-66
2022/12/06 08:01:50;;;;;;;;;;;25.30;33.20;;;;;;5094360;28;20006;-68
2022/12/06 08:04:15;;;;;;;;;;;25.50;33.10;;;;;;5097195;28;19968;-67
2022/12/06 08:06:41;;;;;;;;;;;25.50;33.10;;;;;;5096102;28;20374;-67
2022/12/06 08:09:07;;;;;;;;;;;25.40;33.10;;;;;;5123715;28;20452;-67
2022/12/06 08:11:33;;;;;;;;;;;25.20;33.30;;;;;;5125129;27;19976;-68
2022/12/06 08:13:58;;;;;;;;;;;25.00;33.60;;;;;;5107606;28;20295;-72
2022/12/06 08:16:24;;;;;;;;;;;24.80;33.90;;;;;;5117185;27;19927;-68
2022/12/06 08:18:49;;;;;;;;;;;24.50;34.40;;;;;;5122547;28;19925;-66
2022/12/06 08:21:15;;;;;;;;;;;24.20;34.80;;;;;;5104334;28;19927;-67
2022/12/06 08:23:40;;;;;;;;;;;23.90;36.00;;;;;;5102839;28;19928;-70
2022/12/06 08:26:07;;;;;;;;;;;23.50;35.30;;;;;;5120063;27;19927;-67
2022/12/06 08:28:34;;;;;;;;;;;23.10;35.90;;;;;;5108921;28;19919;-67
2022/12/06 08:31:03;;;;;;;;;;;22.70;36.50;;;;;;5104638;28;19919;-68
2022/12/06 08:33:31;;;;;;;;;;;22.50;37.00;;;;;;5104287;28;19981;-66
2022/12/06 08:35:56;;;;;;;;;;;22.40;37.10;;;;;;5099998;27;19967;-68
2022/12/06 08:38:22;;;;;;;;;;;22.40;37.20;;;;;;5107147;27;19961;-68
2022/12/06 08:40:47;;;;;;;;;;;22.40;37.10;;;;;;5108184;27;20030;-68
2022/12/06 08:43:13;;;;;;;;;;;22.50;37.00;;;;;;5102797;27;20279;-65
2022/12/06 08:45:39;;;;;;;;;;;22.60;36.60;;;;;;5104610;27;19945;-66
2022/12/06 08:48:04;;;;;;;;;;;22.80;36.10;;;;;;5094751;27;20042;-65
2022/12/06 08:50:30;;;;;;;;;;;22.80;35.70;;;;;;5102262;27;19937;-65
2022/12/06 08:52:56;;;;;;;;;;;23.00;35.40;;;;;;5103445;27;19953;-67
2022/12/06 08:55:21;;;;;;;;;;;23.20;35.40;;;;;;5106612;27;19962;-67
2022/12/06 08:57:47;;;;;;;;;;;23.70;35.00;;;;;;5111609;27;19977;-66
2022/12/06 09:00:12;;;;;;;;;;;24.20;34.30;;;;;;5109041;27;20339;-66
2022/12/06 09:02:38;;;;;;;;;;;24.70;33.60;;;;;;5126045;27;20021;-66
2022/12/06 09:05:04;;;;;;;;;;;25.10;33.00;;;;;;5125975;27;20294;-66
2022/12/06 09:07:30;;;;;;;;;;;25.30;32.70;;;;;;5104846;27;19920;-64
2022/12/06 09:09:55;;;;;;;;;;;25.20;32.40;;;;;;5110933;27;19931;-66
2022/12/06 09:12:21;;;;;;;;;;;24.70;32.60;;;;;;5128821;27;19923;-65
2022/12/06 09:14:47;;;;;;;;;;;24.20;33.20;;;;;;5123592;27;19920;-67
2022/12/06 09:17:12;;;;;;;;;;;23.70;33.80;;;;;;5125023;27;19963;-67
2022/12/06 09:19:38;;;;;;;;;;;23.50;34.50;;;;;;5107507;27;19926;-66
2022/12/06 09:22:03;;;;;;;;;;;23.30;34.60;;;;;;5102635;27;20318;-68
2022/12/06 09:24:29;;;;;;;;;;;23.10;34.90;;;;;;5104701;27;19969;-68
2022/12/06 09:26:54;;;;;;;;;;;22.90;35.10;;;;;;5125122;27;19928;-66
2022/12/06 09:29:20;;;;;;;;;;;22.70;35.40;;;;;;5109079;27;20153;-67
2022/12/06 09:31:46;;;;;;;;;;;22.70;35.60;;;;;;5103767;27;19924;-66
2022/12/06 09:34:11;;;;;;;;;;;22.70;35.80;;;;;;5103925;27;20035;-67
2022/12/06 09:36:39;;;;;;;;;;;23.00;35.60;;;;;;5117782;27;19927;-67
2022/12/06 09:41:55;;;;;;;;;;;23.80;34.50;;;;;;5079423;28;19928;-66
2022/12/06 09:50:10;;;;;;;;;;;24.70;33.40;;;;;;5090741;27;1854703;-65
2022/12/06 09:52:44;;;;;;;;;;;24.70;33.10;;;;;;5159133;27;19927;-65
2022/12/06 09:55:30;;;;;;;;;;;24.70;33.20;;;;;;5144923;27;19954;-65
2022/12/06 09:58:11;;;;;;;;;;;24.50;33.30;;;;;;5144060;27;20405;-65
2022/12/06 10:00:44;;;;;;;;;;;24.30;33.40;;;;;;5144628;27;20037;-65
2022/12/06 10:08:42;;;;;;;;;;;23.60;34.30;;;;;;5091635;27;19948;-65
2022/12/06 10:19:31;;;;;;;;;;;22.90;35.40;;;;;;5103768;27;19946;-65
2022/12/06 10:22:09;;;;;;;;;;;22.90;35.60;;;;;;5063005;28;20003;-65
2022/12/06 10:24:41;;;;;;;;;;;22.80;35.60;;;;;;5080860;28;20004;-66
2022/12/06 10:27:09;;;;;;;;;;;22.80;35.60;;;;;;5063372;28;19930;-68
2022/12/06 10:29:54;;;;;;;;;;;22.80;35.60;;;;;;5076995;28;20378;-70
2022/12/06 10:32:40;;;;;;;;;;;22.90;35.60;;;;;;5064295;28;20275;-71
2022/12/06 10:35:14;;;;;;;;;;;23.20;35.50;;;;;;5080798;28;19986;-68
2022/12/06 10:37:47;;;;;;;;;;;23.90;35.10;;;;;;5064973;28;19932;-65
2022/12/06 10:40:22;;;;;;;;;;;24.70;34.30;;;;;;5065567;28;19931;-76
2022/12/06 10:48:52;;;;;;;;;;;26.10;32.70;;;;;;5101408;28;20380;-66
2022/12/06 10:51:23;;;;;;;;;;;26.10;32.50;;;;;;5099646;28;19928;-74
2022/12/06 10:53:54;;;;;;;;;;;26.00;32.60;;;;;;5102534;28;20329;-67
2022/12/06 10:56:22;;;;;;;;;;;26.50;33.30;;;;;;5100875;28;21512;-67
2022/12/06 11:01:33;;;;;;;;;;;25.40;33.50;;;;;;5084155;28;19917;-65
2022/12/06 11:04:00;;;;;;;;;;;25.00;33.60;;;;;;5063304;28;19950;-67
2022/12/06 11:09:16;;;;;;;;;;;23.90;34.60;;;;;;5103003;27;19923;-66
2022/12/06 11:11:42;;;;;;;;;;;23.40;35.50;;;;;;5099089;28;19965;-66
2022/12/06 11:14:28;;;;;;;;;;;23.10;36.30;;;;;;5101207;28;19928;-67
2022/12/06 11:19:37;;;;;;;;;;;22.50;37.20;;;;;;5082925;27;1856717;-67
2022/12/06 11:24:54;;;;;;;;;;;22.40;38.00;;;;;;5083127;28;19939;-66
2022/12/06 11:27:25;;;;;;;;;;;22.50;37.90;;;;;;5076633;28;20467;-71
2022/12/06 11:29:52;;;;;;;;;;;22.70;37.80;;;;;;5080726;28;19940;-67
2022/12/06 11:32:18;;;;;;;;;;;22.80;37.70;;;;;;5076463;28;19924;-67
2022/12/06 11:34:46;;;;;;;;;;;23.00;37.50;;;;;;5081709;28;20467;-70
2022/12/06 11:37:14;;;;;;;;;;;23.20;37.30;;;;;;5080645;28;20276;-65
2022/12/06 11:39:40;;;;;;;;;;;23.20;37.10;;;;;;5076683;28;19921;-66
2022/12/06 11:42:06;;;;;;;;;;;23.40;36.80;;;;;;5081427;28;20295;-66
2022/12/06 11:44:38;;;;;;;;;;;23.20;36.70;;;;;;5083801;28;19925;-72
2022/12/06 11:47:04;;;;;;;;;;;23.20;36.70;;;;;;5082017;28;19950;-66
2022/12/06 11:49:31;;;;;;;;;;;23.20;36.80;;;;;;5080906;28;19928;-68
2022/12/06 11:51:58;;;;;;;;;;;23.20;36.70;;;;;;5080103;28;19920;-67
2022/12/06 11:54:30;;;;;;;;;;;23.20;36.50;;;;;;5078841;28;19920;-67
2022/12/06 11:56:58;;;;;;;;;;;23.10;36.70;;;;;;5081245;28;20005;-67
2022/12/06 11:59:27;;;;;;;;;;;23.20;36.90;;;;;;5083106;28;19920;-68
2022/12/06 12:01:54;;;;;;;;;;;23.50;36.70;;;;;;5081107;28;19926;-68
2022/12/06 12:04:22;;;;;;;;;;;23.70;36.40;;;;;;5083765;28;20401;-68
2022/12/06 12:06:49;;;;;;;;;;;23.80;36.20;;;;;;5092615;28;19924;-66
2022/12/06 12:09:18;;;;;;;;;;;23.70;35.90;;;;;;5082754;28;19951;-66
2022/12/06 12:12:00;;;;;;;;;;;23.60;35.80;;;;;;5083843;28;20386;-66
2022/12/06 12:14:28;;;;;;;;;;;23.40;35.90;;;;;;5081442;28;19974;-64
2022/12/06 12:16:57;;;;;;;;;;;23.30;36.10;;;;;;5080442;28;20411;-66
2022/12/06 12:22:22;;;;;;;;;;;23.00;36.40;;;;;;5084443;28;19917;-66
2022/12/06 12:24:49;;;;;;;;;;;22.90;36.60;;;;;;5083575;28;21382;-65
2022/12/06 12:27:32;;;;;;;;;;;22.90;36.60;;;;;;5081369;28;20379;-66
2022/12/06 12:30:17;;;;;;;;;;;22.80;36.70;;;;;;5082162;28;20007;-66
2022/12/06 12:32:43;;;;;;;;;;;22.90;36.80;;;;;;5098153;28;19927;-66
2022/12/06 12:35:27;;;;;;;;;;;22.80;36.80;;;;;;5081577;28;20303;-66
2022/12/06 12:37:56;;;;;;;;;;;22.80;36.80;;;;;;5081428;28;20489;-66
2022/12/06 12:40:23;;;;;;;;;;;22.80;36.90;;;;;;5079485;28;19931;-66
2022/12/06 12:42:55;;;;;;;;;;;22.80;36.90;;;;;;5082672;28;19928;-66
2022/12/06 12:45:21;;;;;;;;;;;22.90;37.00;;;;;;5071359;28;19951;-66
2022/12/06 12:48:03;;;;;;;;;;;23.00;36.80;;;;;;5076948;28;19935;-66
2022/12/06 12:50:29;;;;;;;;;;;23.10;36.70;;;;;;5078166;28;19920;-66
2022/12/06 12:52:55;;;;;;;;;;;23.10;36.50;;;;;;5077865;28;20410;-66
2022/12/06 12:55:25;;;;;;;;;;;23.20;36.40;;;;;;5074630;28;19920;-64
2022/12/06 12:57:55;;;;;;;;;;;23.30;36.40;;;;;;5077442;28;20441;-67
2022/12/06 13:00:23;;;;;;;;;;;23.40;36.30;;;;;;5077767;28;20475;-68
2022/12/06 13:02:53;;;;;;;;;;;23.50;36.00;;;;;;5080525;28;19924;-68
2022/12/06 13:05:20;;;;;;;;;;;23.70;35.90;;;;;;5064665;28;19999;-69
2022/12/06 13:07:47;;;;;;;;;;;23.70;35.80;;;;;;5079491;28;19928;-69
2022/12/06 13:15:35;;;;;;;;;;;23.70;35.80;;;;;;5097102;27;20431;-66
2022/12/06 13:18:05;;;;;;;;;;;23.40;35.70;;;;;;5097104;28;20042;-68
2022/12/06 13:20:33;;;;;;;;;;;23.80;35.80;;;;;;5095563;28;20339;-66
2022/12/06 13:23:04;;;;;;;;;;;24.10;35.50;;;;;;5092118;28;19924;-67
2022/12/06 13:25:30;;;;;;;;;;;24.20;35.10;;;;;;5096606;28;19959;-67
2022/12/06 13:27:57;;;;;;;;;;;24.40;35.00;;;;;;5094358;28;19971;-67
2022/12/06 13:30:24;;;;;;;;;;;24.40;34.90;;;;;;5092834;28;19920;-66
2022/12/06 13:35:37;;;;;;;;;;;24.10;35.10;;;;;;5072382;28;20292;-67
2022/12/06 13:38:20;;;;;;;;;;;23.90;35.30;;;;;;5084334;28;19924;-66
2022/12/06 13:46:20;;;;;;;;;;;23.40;36.20;;;;;;5060716;28;20299;-66
2022/12/06 13:56:56;;;;;;;;;;;22.40;37.30;;;;;;5081307;28;19912;-65
2022/12/06 14:02:01;;;;;;;;;;;22.10;37.90;;;;;;5091425;27;1859358;-66
2022/12/06 14:07:09;;;;;;;;;;;22.10;38.10;;;;;;5103362;27;19924;-65
2022/12/06 14:09:51;;;;;;;;;;;22.30;37.90;;;;;;5102768;28;20533;-65
2022/12/06 14:14:57;;;;;;;;;;;22.70;37.60;;;;;;5105234;27;20300;-66
2022/12/06 14:17:24;;;;;;;;;;;22.90;37.20;;;;;;5103208;28;19938;-65
2022/12/06 14:19:50;;;;;;;;;;;23.10;36.90;;;;;;5103712;28;19985;-65
2022/12/06 14:22:33;;;;;;;;;;;23.20;36.70;;;;;;5105016;28;19924;-65
2022/12/06 14:27:42;;;;;;;;;;;23.50;36.30;;;;;;5082656;28;19940;-65
2022/12/06 14:30:16;;;;;;;;;;;23.50;36.10;;;;;;5081885;28;19924;-65
2022/12/06 14:32:44;;;;;;;;;;;23.60;36.10;;;;;;5082415;28;19921;-65
2022/12/06 14:35:13;;;;;;;;;;;23.70;35.90;;;;;;5079165;28;19977;-66
2022/12/06 14:37:45;;;;;;;;;;;23.80;35.70;;;;;;5077610;28;20010;-66
2022/12/06 14:40:19;;;;;;;;;;;23.90;35.70;;;;;;5080702;28;19916;-66
2022/12/06 14:43:15;;;;;;;;;;;24.20;35.30;;;;;;5079829;28;20125;-67
2022/12/06 14:45:32;;;;;;;;;;;24.50;34.80;;;;;;5081245;28;20224;-67
2022/12/06 14:47:59;;;;;;;;;;;24.70;34.40;;;;;;5079980;28;19921;-66
2022/12/06 14:50:28;;;;;;;;;;;24.70;34.20;;;;;;5080759;28;19920;-66
2022/12/06 14:52:58;;;;;;;;;;;24.70;34.20;;;;;;5081293;28;20422;-68
2022/12/06 14:55:24;;;;;;;;;;;24.60;34.30;;;;;;5081284;28;20211;-67
2022/12/06 14:57:54;;;;;;;;;;;24.40;34.40;;;;;;5079267;28;19935;-67
2022/12/06 15:00:22;;;;;;;;;;;24.20;34.70;;;;;;5082273;28;19986;-66
2022/12/06 15:03:09;;;;;;;;;;;23.90;35.00;;;;;;5080852;28;19959;-67
2022/12/06 15:05:36;;;;;;;;;;;23.70;35.40;;;;;;5085918;28;20387;-66
2022/12/06 15:10:59;;;;;;;;;;;23.10;36.10;;;;;;5101962;27;20459;-66
2022/12/06 15:13:25;;;;;;;;;;;22.90;36.50;;;;;;5084964;28;19920;-66
2022/12/06 15:16:00;;;;;;;;;;;22.60;36.90;;;;;;5102144;28;19938;-66
2022/12/06 15:18:27;;;;;;;;;;;22.50;37.20;;;;;;5103237;28;19919;-68
2022/12/06 15:20:53;;;;;;;;;;;22.40;37.40;;;;;;5088524;28;20287;-66
2022/12/06 15:23:35;;;;;;;;;;;22.40;37.50;;;;;;5103032;28;19920;-66
2022/12/06 15:26:02;;;;;;;;;;;22.40;37.50;;;;;;5088189;28;19985;-66
2022/12/06 15:28:27;;;;;;;;;;;22.40;37.50;;;;;;5084685;28;20275;-66
2022/12/06 15:30:53;;;;;;;;;;;22.30;37.40;;;;;;5103780;28;19920;-66
2022/12/06 15:33:20;;;;;;;;;;;22.30;37.50;;;;;;5086808;28;20295;-68
2022/12/06 15:35:45;;;;;;;;;;;22.30;37.50;;;;;;5087236;28;20430;-66
2022/12/06 15:38:11;;;;;;;;;;;22.20;37.50;;;;;;5104477;28;19959;-66
2022/12/06 15:40:41;;;;;;;;;;;22.10;37.60;;;;;;5087106;28;19920;-68
2022/12/06 15:43:23;;;;;;;;;;;22.00;37.70;;;;;;5085943;28;20452;-66
2022/12/06 15:45:49;;;;;;;;;;;22.00;37.90;;;;;;5086524;28;19920;-66
2022/12/06 15:48:14;;;;;;;;;;;21.80;38.10;;;;;;5083651;28;19977;-68
2022/12/06 15:50:40;;;;;;;;;;;21.70;39.00;;;;;;5103819;28;19928;-66
2022/12/06 15:53:05;;;;;;;;;;;21.60;38.40;;;;;;5086965;28;19931;-66
2022/12/06 15:55:31;;;;;;;;;;;21.50;38.50;;;;;;5083721;28;19927;-67
2022/12/06 15:57:56;;;;;;;;;;;21.50;38.70;;;;;;5104206;28;20023;-66
2022/12/06 16:00:22;;;;;;;;;;;21.40;38.80;;;;;;5103622;28;19924;-66
2022/12/06 16:02:48;;;;;;;;;;;21.40;38.90;;;;;;5104423;28;19946;-66
2022/12/06 16:05:15;;;;;;;;;;;21.30;39.00;;;;;;5086495;28;19927;-66
2022/12/06 16:07:40;;;;;;;;;;;21.30;39.00;;;;;;5085304;28;19940;-66
2022/12/06 16:10:06;;;;;;;;;;;21.30;39.10;;;;;;5084748;28;19930;-66